Time,TemperatureF,DewpointF,PressureIn,WindDirection,WindDirectionDegrees,WindSpeedMPH,WindSpeedGustMPH,Humidity,HourlyPrecipIn,Conditions,Clouds,dailyrainin,SoftwareType,DateUTC
2013-08-30 08:31:00,63.1,53.6,29.82,NW,315,3.8,6.0,71,0.00,,---,0.00,VWS V14.01,2013-08-29 22:31:00,
2013-08-30 08:32:00,63.1,53.6,29.76,West,270,0.0,3.8,71,0.00,,---,0.00,VWS V14.01,2013-08-29 22:32:00,
2013-08-30 08:33:00,61.5,54.2,29.76,WNW,292,7.6,7.6,77,0.00,,---,0.00,VWS V14.01,2013-08-29 22:33:00,
2013-08-30 08:34:00,61.5,54.2,29.76,North,0,3.6,7.6,77,0.00,,---,0.00,VWS V14.01,2013-08-29 22:34:00,
2013-08-30 08:36:00,61.7,54.4,29.76,NW,315,2.0,2.7,77,0.00,,---,0.00,VWS V14.01,2013-08-29 22:36:00,
2013-08-30 08:37:00,61.7,54.4,29.76,NNW,338,8.5,8.5,77,0.00,,---,0.00,VWS V14.01,2013-08-29 22:37:00,
2013-08-30 08:38:00,61.7,54.1,29.76,NNW,338,7.4,8.5,76,0.00,,---,0.00,VWS V14.01,2013-08-29 22:38:00,
2013-08-30 08:39:00,61.7,54.1,29.76,NNE,22,3.4,7.4,76,0.00,,---,0.00,VWS V14.01,2013-08-29 22:39:00,
2013-08-30 08:40:00,61.9,54.2,29.76,North,0,2.2,3.4,76,0.00,,---,0.00,VWS V14.01,2013-08-29 22:40:00,
2013-08-30 08:41:00,62.1,54.4,29.76,NNW,338,2.5,2.5,76,0.00,,---,0.00,VWS V14.01,2013-08-29 22:41:00,
2013-08-30 08:42:00,62.1,54.4,29.76,WSW,248,5.6,5.6,76,0.00,,---,0.00,VWS V14.01,2013-08-29 22:42:00,
2013-08-30 08:43:00,62.1,54.4,29.76,WNW,292,2.0,5.6,76,0.00,,---,0.00,VWS V14.01,2013-08-29 22:43:00,
2013-08-30 08:44:00,62.2,54.6,29.76,WNW,292,1.3,2.0,76,0.00,,---,0.00,VWS V14.01,2013-08-29 22:44:00,
2013-08-30 08:45:00,62.2,54.6,29.76,NE,45,3.4,3.4,76,0.00,,---,0.00,VWS V14.01,2013-08-29 22:45:00,
2013-08-30 08:46:00,62.2,54.6,29.76,West,270,1.6,3.4,76,0.00,,---,0.00,VWS V14.01,2013-08-29 22:46:00,
2013-08-30 08:47:00,62.4,54.8,29.76,North,0,7.6,7.6,76,0.00,,---,0.00,VWS V14.01,2013-08-29 22:47:00,
2013-08-30 08:48:00,62.4,54.8,29.76,NNW,338,5.4,7.6,76,0.00,,---,0.00,VWS V14.01,2013-08-29 22:48:00,
2013-08-30 08:49:00,62.6,54.6,29.76,NNW,338,2.2,5.4,75,0.00,,---,0.00,VWS V14.01,2013-08-29 22:49:00,
2013-08-30 08:50:00,62.6,54.6,29.76,NNW,338,2.2,2.2,75,0.00,,---,0.00,VWS V14.01,2013-08-29 22:50:00,
2013-08-30 08:51:00,62.8,54.8,29.76,NNE,22,2.9,2.9,75,0.00,,---,0.00,VWS V14.01,2013-08-29 22:51:00,
2013-08-30 08:52:00,63.0,54.5,29.76,NE,45,2.0,2.9,74,0.00,,---,0.00,VWS V14.01,2013-08-29 22:52:00,
2013-08-30 08:53:00,63.0,54.5,29.76,NW,315,7.8,7.8,74,0.00,,---,0.00,VWS V14.01,2013-08-29 22:53:00,
2013-08-30 08:54:00,63.1,54.7,29.76,NW,315,3.4,7.8,74,0.00,,---,0.00,VWS V14.01,2013-08-29 22:54:00,
2013-08-30 08:55:00,63.1,54.7,29.76,NW,315,2.2,3.4,74,0.00,,---,0.00,VWS V14.01,2013-08-29 22:55:00,
2013-08-30 08:56:00,63.3,54.5,29.76,South,180,3.1,3.1,73,0.00,,---,0.00,VWS V14.01,2013-08-29 22:56:00,
2013-08-30 08:57:00,63.3,54.5,29.76,West,270,1.1,3.1,73,0.00,,---,0.00,VWS V14.01,2013-08-29 22:57:00,
2013-08-30 08:58:00,63.5,54.7,29.74,NE,45,9.6,9.6,73,0.00,,---,0.00,VWS V14.01,2013-08-29 22:58:00,
2013-08-30 08:59:00,63.7,54.9,29.74,NW,315,7.6,9.6,73,0.00,,---,0.00,VWS V14.01,2013-08-29 22:59:00,
2013-08-30 09:00:00,63.7,54.9,29.74,NW,315,2.7,7.6,73,0.00,,---,0.00,VWS V14.01,2013-08-29 23:00:00,
2013-08-30 09:01:00,63.9,55.0,29.74,West,270,5.8,5.8,73,0.00,,---,0.00,VWS V14.01,2013-08-29 23:01:00,
2013-08-30 09:02:00,63.9,55.0,29.74,West,270,2.7,5.8,73,0.00,,---,0.00,VWS V14.01,2013-08-29 23:02:00,
2013-08-30 09:03:00,64.0,55.2,29.74,North,0,1.3,2.7,73,0.00,,---,0.00,VWS V14.01,2013-08-29 23:03:00,
2013-08-30 09:04:00,64.0,55.2,29.74,NNW,338,6.0,6.0,73,0.00,,---,0.00,VWS V14.01,2013-08-29 23:04:00,
2013-08-30 09:05:00,64.2,55.0,29.74,NNW,338,4.0,6.0,72,0.00,,---,0.00,VWS V14.01,2013-08-29 23:05:00,
2013-08-30 09:06:00,64.4,55.2,29.74,NW,315,7.4,7.4,72,0.00,,---,0.00,VWS V14.01,2013-08-29 23:06:00,
2013-08-30 09:07:00,64.4,55.2,29.74,West,270,3.6,7.4,72,0.00,,---,0.00,VWS V14.01,2013-08-29 23:07:00,
2013-08-30 09:08:00,64.6,55.4,29.74,West,270,3.6,3.6,72,0.00,,---,0.00,VWS V14.01,2013-08-29 23:08:00,
2013-08-30 09:09:00,64.6,55.4,29.74,West,270,2.9,3.6,72,0.00,,---,0.00,VWS V14.01,2013-08-29 23:09:00,
2013-08-30 09:11:00,64.6,55.4,29.74,ENE,68,3.6,3.6,72,0.00,,---,0.00,VWS V14.01,2013-08-29 23:11:00,
2013-08-30 09:12:00,64.9,55.3,29.74,North,0,1.3,3.6,71,0.00,,---,0.00,VWS V14.01,2013-08-29 23:12:00,
2013-08-30 09:14:00,64.9,55.3,29.74,NNE,22,4.9,4.9,71,0.00,,---,0.00,VWS V14.01,2013-08-29 23:14:00,
2013-08-30 09:16:00,64.9,55.3,29.76,NNW,338,2.9,2.9,71,0.00,,---,0.00,VWS V14.01,2013-08-29 23:16:00,
2013-08-30 09:17:00,65.7,56.0,29.76,North,0,7.2,7.2,71,0.00,,---,0.00,VWS V14.01,2013-08-29 23:17:00,
2013-08-30 09:18:00,65.7,56.0,29.76,NW,315,1.1,7.2,71,0.00,,---,0.00,VWS V14.01,2013-08-29 23:18:00,
2013-08-30 09:19:00,65.8,56.2,29.76,North,0,4.0,4.0,71,0.00,,---,0.00,VWS V14.01,2013-08-29 23:19:00,
2013-08-30 09:20:00,65.8,56.2,29.76,NW,315,5.6,5.6,71,0.00,,---,0.00,VWS V14.01,2013-08-29 23:20:00,
2013-08-30 09:21:00,66.0,56.0,29.76,North,0,5.4,5.6,70,0.00,,---,0.00,VWS V14.01,2013-08-29 23:21:00,
2013-08-30 09:22:00,66.2,56.1,29.76,NW,315,5.4,5.4,70,0.00,,---,0.00,VWS V14.01,2013-08-29 23:22:00,
2013-08-30 09:23:00,66.2,56.1,29.76,NW,315,1.6,5.4,70,0.00,,---,0.00,VWS V14.01,2013-08-29 23:23:00,
2013-08-30 09:24:00,66.2,56.1,29.76,NW,315,6.0,6.0,70,0.00,,---,0.00,VWS V14.01,2013-08-29 23:24:00,
2013-08-30 09:25:00,66.2,56.1,29.76,West,270,2.5,6.0,70,0.00,,---,0.00,VWS V14.01,2013-08-29 23:25:00,
2013-08-30 09:26:00,66.7,56.3,29.76,NW,315,0.0,2.5,69,0.00,,---,0.00,VWS V14.01,2013-08-29 23:26:00,
2013-08-30 09:27:00,66.7,56.3,29.76,NNW,338,3.1,3.1,69,0.00,,---,0.00,VWS V14.01,2013-08-29 23:27:00,
2013-08-30 09:28:00,66.9,56.4,29.76,NNW,338,4.3,4.3,69,0.00,,---,0.00,VWS V14.01,2013-08-29 23:28:00,
2013-08-30 09:29:00,66.9,56.4,29.76,NNW,338,4.3,4.3,69,0.00,,---,0.00,VWS V14.01,2013-08-29 23:29:00,
2013-08-30 09:30:00,67.3,56.4,29.76,NW,315,6.5,6.5,68,0.00,,---,0.00,VWS V14.01,2013-08-29 23:30:00,
2013-08-30 09:31:00,67.6,56.7,29.76,NW,315,6.5,6.5,68,0.00,,---,0.00,VWS V14.01,2013-08-29 23:31:00,
2013-08-30 09:32:00,67.6,56.7,29.76,NW,315,6.5,6.5,68,0.00,,---,0.00,VWS V14.01,2013-08-29 23:32:00,
2013-08-30 09:33:00,68.0,56.7,29.76,WNW,292,3.6,6.5,67,0.00,,---,0.00,VWS V14.01,2013-08-29 23:33:00,
2013-08-30 09:34:00,68.0,56.7,29.76,NW,315,2.7,3.6,67,0.00,,---,0.00,VWS V14.01,2013-08-29 23:34:00,
2013-08-30 09:35:00,68.5,56.7,29.76,West,270,5.4,5.4,66,0.00,,---,0.00,VWS V14.01,2013-08-29 23:35:00,
2013-08-30 09:36:00,68.9,57.1,29.76,North,0,6.5,6.5,66,0.00,,---,0.00,VWS V14.01,2013-08-29 23:36:00,
2013-08-30 09:37:00,68.9,57.1,29.76,NW,315,3.4,6.5,66,0.00,,---,0.00,VWS V14.01,2013-08-29 23:37:00,
2013-08-30 09:38:00,69.4,57.6,29.76,NNW,338,4.9,4.9,66,0.00,,---,0.00,VWS V14.01,2013-08-29 23:38:00,
2013-08-30 09:39:00,69.8,57.1,29.76,East,90,1.1,4.9,64,0.00,,---,0.00,VWS V14.01,2013-08-29 23:39:00,
2013-08-30 09:40:00,69.8,57.1,29.76,NE,45,2.9,2.9,64,0.00,,---,0.00,VWS V14.01,2013-08-29 23:40:00,
2013-08-30 09:41:00,69.8,57.1,29.76,NW,315,2.0,2.9,64,0.00,,---,0.00,VWS V14.01,2013-08-29 23:41:00,
2013-08-30 09:42:00,70.3,57.6,29.76,West,270,3.4,3.4,64,0.00,,---,0.00,VWS V14.01,2013-08-29 23:42:00,
2013-08-30 09:43:00,70.3,57.6,29.74,NW,315,3.6,3.6,64,0.00,,---,0.00,VWS V14.01,2013-08-29 23:43:00,
2013-08-30 09:44:00,70.7,57.9,29.74,WSW,248,2.9,3.6,64,0.00,,---,0.00,VWS V14.01,2013-08-29 23:44:00,
2013-08-30 09:45:00,71.1,58.3,29.74,North,0,5.6,5.6,64,0.00,,---,0.00,VWS V14.01,2013-08-29 23:45:00,
2013-08-30 09:46:00,71.1,58.3,29.74,North,0,5.6,5.6,64,0.00,,---,0.00,VWS V14.01,2013-08-29 23:46:00,
2013-08-30 09:47:00,71.4,58.2,29.74,North,0,4.3,4.3,63,0.00,,---,0.00,VWS V14.01,2013-08-29 23:47:00,
2013-08-30 09:48:00,71.4,58.2,29.74,NNW,338,3.6,4.3,63,0.00,,---,0.00,VWS V14.01,2013-08-29 23:48:00,
2013-08-30 09:49:00,71.6,58.3,29.74,North,0,5.6,5.6,63,0.00,,---,0.00,VWS V14.01,2013-08-29 23:49:00,
2013-08-30 09:50:00,71.6,58.3,29.74,North,0,5.6,5.6,63,0.00,,---,0.00,VWS V14.01,2013-08-29 23:50:00,
2013-08-30 09:51:00,71.6,58.3,29.74,North,0,5.6,5.6,63,0.00,,---,0.00,VWS V14.01,2013-08-29 23:51:00,
2013-08-30 09:52:00,71.6,58.3,29.74,WNW,292,3.6,3.6,63,0.00,,---,0.00,VWS V14.01,2013-08-29 23:52:00,
2013-08-30 09:53:00,71.6,58.3,29.74,NNW,338,0.0,3.6,63,0.00,,---,0.00,VWS V14.01,2013-08-29 23:53:00,
2013-08-30 09:54:00,72.7,58.9,29.74,ESE,112,0.0,0.0,62,0.00,,---,0.00,VWS V14.01,2013-08-29 23:54:00,
2013-08-30 09:55:00,72.7,58.9,29.74,NE,45,0.0,0.0,62,0.00,,---,0.00,VWS V14.01,2013-08-29 23:55:00,
2013-08-30 09:56:00,72.9,58.6,29.74,ENE,68,1.1,1.1,61,0.00,,---,0.00,VWS V14.01,2013-08-29 23:56:00,
2013-08-30 09:57:00,72.9,58.6,29.74,NNW,338,3.6,3.6,61,0.00,,---,0.00,VWS V14.01,2013-08-29 23:57:00,
2013-08-30 09:58:00,73.2,59.0,29.74,NNW,338,4.3,4.3,61,0.00,,---,0.00,VWS V14.01,2013-08-29 23:58:00,
2013-08-30 09:59:00,73.2,59.0,29.74,NW,315,4.0,4.3,61,0.00,,---,0.00,VWS V14.01,2013-08-29 23:59:00,
2013-08-30 10:00:00,73.4,58.7,29.74,NNW,338,7.2,7.2,60,0.00,,---,0.00,VWS V14.01,2013-08-30 00:00:00,
2013-08-30 10:01:00,73.8,59.0,29.74,North,0,2.9,7.2,60,0.00,,---,0.00,VWS V14.01,2013-08-30 00:01:00,
2013-08-30 10:02:00,73.8,59.0,29.74,WSW,248,2.7,2.9,60,0.00,,---,0.00,VWS V14.01,2013-08-30 00:02:00,
2013-08-30 10:03:00,73.9,59.2,29.74,ENE,68,3.6,3.6,60,0.00,,---,0.00,VWS V14.01,2013-08-30 00:03:00,
2013-08-30 10:04:00,73.9,59.2,29.74,NW,315,2.0,3.6,60,0.00,,---,0.00,VWS V14.01,2013-08-30 00:04:00,
2013-08-30 10:06:00,74.1,58.9,29.74,NNW,338,4.3,4.3,59,0.00,,---,0.00,VWS V14.01,2013-08-30 00:06:00,
2013-08-30 10:07:00,74.3,58.6,29.74,NNE,22,4.0,4.3,58,0.00,,---,0.00,VWS V14.01,2013-08-30 00:07:00,
2013-08-30 10:08:00,74.5,58.8,29.74,WNW,292,3.8,4.0,58,0.00,,---,0.00,VWS V14.01,2013-08-30 00:08:00,
2013-08-30 10:09:00,74.5,58.8,29.74,NW,315,4.9,4.9,58,0.00,,---,0.00,VWS V14.01,2013-08-30 00:09:00,
2013-08-30 10:10:00,74.7,58.9,29.74,NNW,338,2.0,4.9,58,0.00,,---,0.00,VWS V14.01,2013-08-30 00:10:00,
2013-08-30 10:11:00,74.7,58.9,29.74,WSW,248,2.5,2.5,58,0.00,,---,0.00,VWS V14.01,2013-08-30 00:11:00,
2013-08-30 10:12:00,74.8,58.1,29.74,NNW,338,4.3,4.3,56,0.00,,---,0.00,VWS V14.01,2013-08-30 00:12:00,
2013-08-30 10:14:00,74.8,58.1,29.74,NNW,338,4.3,4.3,56,0.00,,---,0.00,VWS V14.01,2013-08-30 00:14:00,
2013-08-30 10:15:00,75.2,57.9,29.74,NNW,338,2.2,4.3,55,0.00,,---,0.00,VWS V14.01,2013-08-30 00:15:00,
2013-08-30 10:16:00,75.2,57.9,29.74,North,0,6.3,6.3,55,0.00,,---,0.00,VWS V14.01,2013-08-30 00:16:00,
2013-08-30 10:17:00,75.6,58.3,29.74,NNE,22,1.3,6.3,55,0.00,,---,0.00,VWS V14.01,2013-08-30 00:17:00,
2013-08-30 10:18:00,75.6,58.3,29.74,West,270,3.8,3.8,55,0.00,,---,0.00,VWS V14.01,2013-08-30 00:18:00,
2013-08-30 10:19:00,75.7,58.4,29.74,NW,315,3.4,3.8,55,0.00,,---,0.00,VWS V14.01,2013-08-30 00:19:00,
2013-08-30 10:20:00,75.7,58.4,29.74,NNW,338,0.0,3.4,55,0.00,,---,0.00,VWS V14.01,2013-08-30 00:20:00,
2013-08-30 10:21:00,76.1,58.8,29.74,SW,225,1.6,1.6,55,0.00,,---,0.00,VWS V14.01,2013-08-30 00:21:00,
2013-08-30 10:22:00,76.3,58.4,29.74,NE,45,3.4,3.4,54,0.00,,---,0.00,VWS V14.01,2013-08-30 00:22:00,
2013-08-30 10:23:00,76.3,58.4,29.74,NW,315,3.1,3.4,54,0.00,,---,0.00,VWS V14.01,2013-08-30 00:23:00,
2013-08-30 10:24:00,76.5,58.6,29.74,West,270,3.6,3.6,54,0.00,,---,0.00,VWS V14.01,2013-08-30 00:24:00,
2013-08-30 10:25:00,76.5,58.6,29.74,West,270,3.6,3.6,54,0.00,,---,0.00,VWS V14.01,2013-08-30 00:25:00,
2013-08-30 10:26:00,76.5,58.6,29.74,West,270,3.6,3.6,54,0.00,,---,0.00,VWS V14.01,2013-08-30 00:26:00,
2013-08-30 10:27:00,76.5,58.6,29.74,North,0,4.0,4.0,54,0.00,,---,0.00,VWS V14.01,2013-08-30 00:27:00,
2013-08-30 10:28:00,76.8,58.4,29.74,WSW,248,6.3,6.3,53,0.00,,---,0.00,VWS V14.01,2013-08-30 00:28:00,
2013-08-30 10:29:00,76.8,58.4,29.74,North,0,4.3,6.3,53,0.00,,---,0.00,VWS V14.01,2013-08-30 00:29:00,
2013-08-30 10:30:00,76.8,58.4,29.74,North,0,4.3,4.3,53,0.00,,---,0.00,VWS V14.01,2013-08-30 00:30:00,
2013-08-30 10:31:00,77.0,57.5,29.74,North,0,4.3,4.3,51,0.00,,---,0.00,VWS V14.01,2013-08-30 00:31:00,
2013-08-30 10:32:00,77.0,57.5,29.74,NW,315,4.7,4.7,51,0.00,,---,0.00,VWS V14.01,2013-08-30 00:32:00,
2013-08-30 10:33:00,77.0,57.5,29.74,NNW,338,0.0,4.7,51,0.00,,---,0.00,VWS V14.01,2013-08-30 00:33:00,
2013-08-30 10:34:00,77.0,57.5,29.74,WNW,292,10.3,10.3,51,0.00,,---,0.00,VWS V14.01,2013-08-30 00:34:00,
2013-08-30 10:35:00,77.2,57.1,29.74,WSW,248,8.7,10.3,50,0.00,,---,0.00,VWS V14.01,2013-08-30 00:35:00,
2013-08-30 10:36:00,77.2,57.1,29.74,WSW,248,8.7,8.7,50,0.00,,---,0.00,VWS V14.01,2013-08-30 00:36:00,
2013-08-30 10:37:00,77.2,57.1,29.74,West,270,7.6,9.8,50,0.00,,---,0.00,VWS V14.01,2013-08-30 00:37:00,
2013-08-30 10:38:00,77.2,56.6,29.74,West,270,9.4,9.4,49,0.00,,---,0.00,VWS V14.01,2013-08-30 00:38:00,
2013-08-30 10:39:00,77.2,56.6,29.74,NNW,338,3.8,9.4,49,0.00,,---,0.00,VWS V14.01,2013-08-30 00:39:00,
2013-08-30 10:40:00,77.4,56.7,29.74,West,270,5.8,5.8,49,0.00,,---,0.00,VWS V14.01,2013-08-30 00:40:00,
2013-08-30 10:41:00,77.4,56.7,29.74,WNW,292,4.0,5.8,49,0.00,,---,0.00,VWS V14.01,2013-08-30 00:41:00,
2013-08-30 10:42:00,77.5,57.5,29.74,West,270,5.4,5.4,50,0.00,,---,0.00,VWS V14.01,2013-08-30 00:42:00,
2013-08-30 10:43:00,77.5,57.5,29.71,WSW,248,3.8,5.4,50,0.00,,---,0.00,VWS V14.01,2013-08-30 00:43:00,
2013-08-30 10:44:00,77.7,57.1,29.71,WNW,292,5.6,5.6,49,0.00,,---,0.00,VWS V14.01,2013-08-30 00:44:00,
2013-08-30 10:45:00,77.9,57.2,29.71,West,270,6.3,6.3,49,0.00,,---,0.00,VWS V14.01,2013-08-30 00:45:00,
2013-08-30 10:46:00,77.9,57.2,29.71,WNW,292,8.1,8.1,49,0.00,,---,0.00,VWS V14.01,2013-08-30 00:46:00,
2013-08-30 10:48:00,77.9,57.2,29.71,NW,315,4.7,8.1,49,0.00,,---,0.00,VWS V14.01,2013-08-30 00:48:00,
2013-08-30 10:49:00,77.9,56.7,29.71,NNW,338,5.8,5.8,48,0.00,,---,0.00,VWS V14.01,2013-08-30 00:49:00,
2013-08-30 10:50:00,77.9,56.7,29.71,NNW,338,5.8,5.8,48,0.00,,---,0.00,VWS V14.01,2013-08-30 00:50:00,
2013-08-30 10:51:00,78.3,57.0,29.71,West,270,6.0,6.0,48,0.00,,---,0.00,VWS V14.01,2013-08-30 00:51:00,
2013-08-30 10:52:00,78.3,57.0,29.71,West,270,3.6,3.6,48,0.00,,---,0.00,VWS V14.01,2013-08-30 00:52:00,
2013-08-30 10:53:00,78.6,57.3,29.71,North,0,10.1,10.1,48,0.00,,---,0.00,VWS V14.01,2013-08-30 00:53:00,
2013-08-30 10:54:00,78.4,56.6,29.71,NW,315,5.8,10.1,47,0.00,,---,0.00,VWS V14.01,2013-08-30 00:54:00,
2013-08-30 10:55:00,78.4,56.6,29.71,NW,315,8.5,8.5,47,0.00,,---,0.00,VWS V14.01,2013-08-30 00:55:00,
2013-08-30 10:56:00,78.3,57.0,29.71,NW,315,8.1,8.5,48,0.00,,---,0.00,VWS V14.01,2013-08-30 00:56:00,
2013-08-30 10:57:00,78.3,57.0,29.71,North,0,8.7,8.7,48,0.00,,---,0.00,VWS V14.01,2013-08-30 00:57:00,
2013-08-30 10:58:00,78.3,56.4,29.71,North,0,7.2,8.7,47,0.00,,---,0.00,VWS V14.01,2013-08-30 00:58:00,
2013-08-30 10:59:00,78.3,56.4,29.71,NW,315,9.2,9.2,47,0.00,,---,0.00,VWS V14.01,2013-08-30 00:59:00,
2013-08-30 11:00:00,78.1,56.2,29.71,WNW,292,8.5,9.2,47,0.00,,---,0.00,VWS V14.01,2013-08-30 01:00:00,
2013-08-30 11:01:00,78.1,56.2,29.71,West,270,5.6,8.5,47,0.00,,---,0.00,VWS V14.01,2013-08-30 01:01:00,
2013-08-30 11:02:00,78.1,56.2,29.71,West,270,10.5,10.5,47,0.00,,---,0.00,VWS V14.01,2013-08-30 01:02:00,
2013-08-30 11:03:00,78.1,56.2,29.71,NW,315,5.6,10.5,47,0.00,,---,0.00,VWS V14.01,2013-08-30 01:03:00,
2013-08-30 11:04:00,78.1,56.2,29.71,NW,315,5.6,5.6,47,0.00,,---,0.00,VWS V14.01,2013-08-30 01:04:00,
2013-08-30 11:05:00,77.9,56.1,29.71,NW,315,10.3,10.3,47,0.00,,---,0.00,VWS V14.01,2013-08-30 01:05:00,
2013-08-30 11:06:00,77.9,56.1,29.71,NW,315,10.3,10.3,47,0.00,,---,0.00,VWS V14.01,2013-08-30 01:06:00,
2013-08-30 11:07:00,77.9,56.1,29.71,NW,315,7.8,8.1,47,0.00,,---,0.00,VWS V14.01,2013-08-30 01:07:00,
2013-08-30 11:08:00,77.7,55.9,29.71,North,0,5.4,7.8,47,0.00,,---,0.00,VWS V14.01,2013-08-30 01:08:00,
2013-08-30 11:09:00,77.7,55.9,29.71,North,0,5.4,5.4,47,0.00,,---,0.00,VWS V14.01,2013-08-30 01:09:00,
2013-08-30 11:10:00,77.7,55.9,29.71,West,270,2.7,5.4,47,0.00,,---,0.00,VWS V14.01,2013-08-30 01:10:00,
2013-08-30 11:11:00,77.7,55.9,29.71,NW,315,6.5,6.5,47,0.00,,---,0.00,VWS V14.01,2013-08-30 01:11:00,
2013-08-30 11:12:00,77.7,55.9,29.71,North,0,6.5,6.5,47,0.00,,---,0.00,VWS V14.01,2013-08-30 01:12:00,
2013-08-30 11:13:00,77.7,55.9,29.71,West,270,10.7,10.7,47,0.00,,---,0.00,VWS V14.01,2013-08-30 01:13:00,
2013-08-30 11:14:00,77.7,55.9,29.71,NW,315,5.6,10.7,47,0.00,,---,0.00,VWS V14.01,2013-08-30 01:14:00,
2013-08-30 11:15:00,77.7,55.9,29.71,NW,315,8.5,8.5,47,0.00,,---,0.00,VWS V14.01,2013-08-30 01:15:00,
2013-08-30 11:16:00,77.7,55.9,29.71,WSW,248,9.6,9.6,47,0.00,,---,0.00,VWS V14.01,2013-08-30 01:16:00,
2013-08-30 11:17:00,77.7,55.9,29.71,NW,315,5.6,9.6,47,0.00,,---,0.00,VWS V14.01,2013-08-30 01:17:00,
2013-08-30 11:18:00,77.7,55.9,29.71,NW,315,8.5,8.5,47,0.00,,---,0.00,VWS V14.01,2013-08-30 01:18:00,
2013-08-30 11:19:00,77.7,55.9,29.71,NNW,338,7.6,8.5,47,0.00,,---,0.00,VWS V14.01,2013-08-30 01:19:00,
2013-08-30 11:20:00,77.7,55.9,29.71,West,270,4.3,4.3,47,0.00,,---,0.00,VWS V14.01,2013-08-30 01:20:00,
2013-08-30 11:21:00,77.7,55.9,29.71,NW,315,4.3,4.3,47,0.00,,---,0.00,VWS V14.01,2013-08-30 01:21:00,
2013-08-30 11:22:00,77.7,55.9,29.71,NNW,338,3.1,4.3,47,0.00,,---,0.00,VWS V14.01,2013-08-30 01:22:00,
2013-08-30 11:23:00,77.7,55.9,29.71,NNW,338,10.1,10.1,47,0.00,,---,0.00,VWS V14.01,2013-08-30 01:23:00,
2013-08-30 11:24:00,77.9,56.1,29.71,WNW,292,4.9,10.1,47,0.00,,---,0.00,VWS V14.01,2013-08-30 01:24:00,
2013-08-30 11:25:00,77.9,56.1,29.71,NW,315,7.4,7.4,47,0.00,,---,0.00,VWS V14.01,2013-08-30 01:25:00,
2013-08-30 11:26:00,77.9,56.1,29.71,NW,315,7.4,7.4,47,0.00,,---,0.00,VWS V14.01,2013-08-30 01:26:00,
2013-08-30 11:27:00,77.9,56.1,29.71,NNW,338,5.4,7.4,47,0.00,,---,0.00,VWS V14.01,2013-08-30 01:27:00,
2013-08-30 11:28:00,77.9,56.1,29.68,NW,315,13.0,13.0,47,0.00,,---,0.00,VWS V14.01,2013-08-30 01:28:00,
2013-08-30 11:29:00,77.9,56.1,29.68,NW,315,8.7,13.0,47,0.00,,---,0.00,VWS V14.01,2013-08-30 01:29:00,
2013-08-30 11:30:00,77.9,54.9,29.68,NW,315,5.6,5.6,45,0.00,,---,0.00,VWS V14.01,2013-08-30 01:30:00,
2013-08-30 11:31:00,77.9,54.9,29.68,North,0,14.1,14.1,45,0.00,,---,0.00,VWS V14.01,2013-08-30 01:31:00,
2013-08-30 11:32:00,77.9,54.9,29.68,North,0,14.1,14.1,45,0.00,,---,0.00,VWS V14.01,2013-08-30 01:32:00,
2013-08-30 11:33:00,77.9,55.5,29.68,West,270,5.4,14.1,46,0.00,,---,0.00,VWS V14.01,2013-08-30 01:33:00,
2013-08-30 11:34:00,77.9,55.5,29.68,NW,315,7.6,7.6,46,0.00,,---,0.00,VWS V14.01,2013-08-30 01:34:00,
2013-08-30 11:35:00,77.9,55.5,29.68,West,270,12.5,12.5,46,0.00,,---,0.00,VWS V14.01,2013-08-30 01:35:00,
2013-08-30 11:36:00,77.9,55.5,29.68,NW,315,9.4,12.5,46,0.00,,---,0.00,VWS V14.01,2013-08-30 01:36:00,
2013-08-30 11:37:00,77.9,55.5,29.68,NW,315,12.5,12.5,46,0.00,,---,0.00,VWS V14.01,2013-08-30 01:37:00,
2013-08-30 11:38:00,77.9,55.5,29.68,SW,225,10.1,12.5,46,0.00,,---,0.00,VWS V14.01,2013-08-30 01:38:00,
2013-08-30 11:39:00,77.9,55.5,29.68,NW,315,12.3,12.3,46,0.00,,---,0.00,VWS V14.01,2013-08-30 01:39:00,
2013-08-30 11:40:00,78.1,55.6,29.68,West,270,12.8,12.8,46,0.00,,---,0.00,VWS V14.01,2013-08-30 01:40:00,
2013-08-30 11:41:00,78.1,55.6,29.68,West,270,12.8,12.8,46,0.00,,---,0.00,VWS V14.01,2013-08-30 01:41:00,
2013-08-30 11:42:00,78.1,55.6,29.68,West,270,10.3,12.8,46,0.00,,---,0.00,VWS V14.01,2013-08-30 01:42:00,
2013-08-30 11:45:00,78.1,55.6,29.68,NW,315,5.6,11.0,46,0.00,,---,0.00,VWS V14.01,2013-08-30 01:45:00,
2013-08-30 11:46:00,78.1,55.6,29.68,SW,225,6.3,11.0,46,0.00,,---,0.00,VWS V14.01,2013-08-30 01:46:00,
2013-08-30 11:47:00,78.3,55.8,29.68,NW,315,12.1,12.1,46,0.00,,---,0.00,VWS V14.01,2013-08-30 01:47:00,
2013-08-30 11:48:00,78.3,55.8,29.68,NW,315,12.1,12.1,46,0.00,,---,0.00,VWS V14.01,2013-08-30 01:48:00,
2013-08-30 11:49:00,78.3,55.8,29.68,West,270,7.8,12.1,46,0.00,,---,0.00,VWS V14.01,2013-08-30 01:49:00,
2013-08-30 11:50:00,78.4,55.4,29.68,West,270,5.8,5.8,45,0.00,,---,0.00,VWS V14.01,2013-08-30 01:50:00,
2013-08-30 11:51:00,78.4,55.4,29.68,West,270,5.8,5.8,45,0.00,,---,0.00,VWS V14.01,2013-08-30 01:51:00,
2013-08-30 11:52:00,78.4,55.4,29.68,WSW,248,2.0,5.8,45,0.00,,---,0.00,VWS V14.01,2013-08-30 01:52:00,
2013-08-30 11:53:00,78.6,55.5,29.68,WSW,248,2.0,2.0,45,0.00,,---,0.00,VWS V14.01,2013-08-30 01:53:00,
2013-08-30 11:54:00,78.6,55.5,29.68,NW,315,7.8,7.8,45,0.00,,---,0.00,VWS V14.01,2013-08-30 01:54:00,
2013-08-30 11:55:00,78.8,55.7,29.68,NW,315,6.3,6.3,45,0.00,,---,0.00,VWS V14.01,2013-08-30 01:55:00,
2013-08-30 11:56:00,78.8,55.7,29.68,NW,315,6.3,6.3,45,0.00,,---,0.00,VWS V14.01,2013-08-30 01:56:00,
2013-08-30 11:57:00,78.8,55.7,29.68,North,0,5.8,6.3,45,0.00,,---,0.00,VWS V14.01,2013-08-30 01:57:00,
2013-08-30 11:58:00,79.0,55.8,29.68,North,0,12.1,12.1,45,0.00,,---,0.00,VWS V14.01,2013-08-30 01:58:00,
2013-08-30 11:59:00,79.0,55.8,29.68,North,0,12.1,12.1,45,0.00,,---,0.00,VWS V14.01,2013-08-30 01:59:00,
2013-08-30 12:00:00,79.0,55.8,29.68,West,270,7.6,7.6,45,0.00,,---,0.00,VWS V14.01,2013-08-30 02:00:00,
2013-08-30 12:01:00,79.0,55.8,29.68,West,270,7.6,7.6,45,0.00,,---,0.00,VWS V14.01,2013-08-30 02:01:00,
2013-08-30 12:02:00,79.0,55.8,29.68,NW,315,11.0,11.0,45,0.00,,---,0.00,VWS V14.01,2013-08-30 02:02:00,
2013-08-30 12:03:00,79.0,55.8,29.68,NW,315,5.4,11.0,45,0.00,,---,0.00,VWS V14.01,2013-08-30 02:03:00,
2013-08-30 12:04:00,79.0,55.8,29.68,West,270,6.0,6.0,45,0.00,,---,0.00,VWS V14.01,2013-08-30 02:04:00,
2013-08-30 12:05:00,79.2,55.4,29.68,NW,315,6.3,7.2,44,0.00,,---,0.00,VWS V14.01,2013-08-30 02:05:00,
2013-08-30 12:06:00,79.2,55.4,29.68,NW,315,6.3,7.2,44,0.00,,---,0.00,VWS V14.01,2013-08-30 02:06:00,
2013-08-30 12:07:00,79.0,55.2,29.68,WNW,292,6.5,6.5,44,0.00,,---,0.00,VWS V14.01,2013-08-30 02:07:00,
2013-08-30 12:08:00,79.0,55.2,29.68,NW,315,6.0,6.5,44,0.00,,---,0.00,VWS V14.01,2013-08-30 02:08:00,
2013-08-30 12:09:00,79.2,55.4,29.68,NW,315,6.0,6.0,44,0.00,,---,0.00,VWS V14.01,2013-08-30 02:09:00,
2013-08-30 12:10:00,79.2,55.4,29.68,WNW,292,4.9,6.0,44,0.00,,---,0.00,VWS V14.01,2013-08-30 02:10:00,
2013-08-30 12:11:00,79.2,55.4,29.68,WNW,292,4.9,6.0,44,0.00,,---,0.00,VWS V14.01,2013-08-30 02:11:00,
2013-08-30 12:12:00,79.3,55.6,29.68,WSW,248,10.3,10.3,44,0.00,,---,0.00,VWS V14.01,2013-08-30 02:12:00,
2013-08-30 12:13:00,79.3,55.6,29.68,WSW,248,10.3,10.3,44,0.00,,---,0.00,VWS V14.01,2013-08-30 02:13:00,
2013-08-30 12:14:00,79.3,55.6,29.68,NW,315,7.4,13.2,44,0.00,,---,0.00,VWS V14.01,2013-08-30 02:14:00,
2013-08-30 12:15:00,79.3,55.6,29.68,NW,315,6.0,7.4,44,0.00,,---,0.00,VWS V14.01,2013-08-30 02:15:00,
2013-08-30 12:16:00,79.3,55.6,29.68,NNW,338,3.6,7.4,44,0.00,,---,0.00,VWS V14.01,2013-08-30 02:16:00,
2013-08-30 12:17:00,79.5,55.7,29.68,NNW,338,3.8,3.8,44,0.00,,---,0.00,VWS V14.01,2013-08-30 02:17:00,
2013-08-30 12:18:00,79.5,55.7,29.68,WNW,292,1.6,3.8,44,0.00,,---,0.00,VWS V14.01,2013-08-30 02:18:00,
2013-08-30 12:19:00,79.7,55.9,29.68,NW,315,6.0,6.0,44,0.00,,---,0.00,VWS V14.01,2013-08-30 02:19:00,
2013-08-30 12:20:00,79.7,55.9,29.68,NW,315,8.1,8.1,44,0.00,,---,0.00,VWS V14.01,2013-08-30 02:20:00,
2013-08-30 12:21:00,79.7,55.9,29.68,NW,315,8.1,8.1,44,0.00,,---,0.00,VWS V14.01,2013-08-30 02:21:00,
2013-08-30 12:22:00,79.7,55.9,29.68,WSW,248,6.9,8.1,44,0.00,,---,0.00,VWS V14.01,2013-08-30 02:22:00,
2013-08-30 12:23:00,79.7,55.9,29.68,NW,315,6.9,6.9,44,0.00,,---,0.00,VWS V14.01,2013-08-30 02:23:00,
2013-08-30 12:24:00,79.7,55.9,29.68,NNW,338,10.1,10.1,44,0.00,,---,0.00,VWS V14.01,2013-08-30 02:24:00,
2013-08-30 12:25:00,79.7,55.9,29.68,NW,315,3.6,9.6,44,0.00,,---,0.00,VWS V14.01,2013-08-30 02:25:00,
2013-08-30 12:26:00,79.7,55.9,29.68,SW,225,4.3,9.6,44,0.00,,---,0.00,VWS V14.01,2013-08-30 02:26:00,
2013-08-30 12:27:00,79.7,55.9,29.68,SW,225,4.3,4.3,44,0.00,,---,0.00,VWS V14.01,2013-08-30 02:27:00,
2013-08-30 12:28:00,79.9,56.0,29.65,West,270,7.6,12.5,44,0.00,,---,0.00,VWS V14.01,2013-08-30 02:28:00,
2013-08-30 12:29:00,79.9,56.0,29.65,West,270,7.2,7.6,44,0.00,,---,0.00,VWS V14.01,2013-08-30 02:29:00,
2013-08-30 12:30:00,79.9,56.0,29.65,NW,315,8.1,8.1,44,0.00,,---,0.00,VWS V14.01,2013-08-30 02:30:00,
2013-08-30 12:31:00,80.1,55.6,29.65,NW,315,8.1,8.1,43,0.00,,---,0.00,VWS V14.01,2013-08-30 02:31:00,
2013-08-30 12:32:00,80.1,55.6,29.65,NNW,338,7.6,8.1,43,0.00,,---,0.00,VWS V14.01,2013-08-30 02:32:00,
2013-08-30 12:33:00,80.1,55.6,29.65,NW,315,15.2,15.2,43,0.00,,---,0.00,VWS V14.01,2013-08-30 02:33:00,
2013-08-30 12:34:00,80.1,55.6,29.65,NW,315,15.2,15.2,43,0.00,,---,0.00,VWS V14.01,2013-08-30 02:34:00,
2013-08-30 12:35:00,80.2,55.7,29.65,NNW,338,7.8,7.8,43,0.00,,---,0.00,VWS V14.01,2013-08-30 02:35:00,
2013-08-30 12:36:00,80.2,55.7,29.65,NNW,338,7.8,7.8,43,0.00,,---,0.00,VWS V14.01,2013-08-30 02:36:00,
2013-08-30 12:37:00,80.2,55.7,29.65,NNW,338,7.8,7.8,43,0.00,,---,0.00,VWS V14.01,2013-08-30 02:37:00,
2013-08-30 12:38:00,80.2,55.7,29.65,West,270,3.6,7.8,43,0.00,,---,0.00,VWS V14.01,2013-08-30 02:38:00,
2013-08-30 12:39:00,80.2,55.7,29.65,NNW,338,6.3,6.3,43,0.00,,---,0.00,VWS V14.01,2013-08-30 02:39:00,
2013-08-30 12:40:00,80.2,55.7,29.65,WNW,292,6.3,6.3,43,0.00,,---,0.00,VWS V14.01,2013-08-30 02:40:00,
2013-08-30 12:41:00,80.2,55.7,29.65,NNW,338,5.8,6.3,43,0.00,,---,0.00,VWS V14.01,2013-08-30 02:41:00,
2013-08-30 12:42:00,80.4,55.9,29.65,NW,315,6.5,6.5,43,0.00,,---,0.00,VWS V14.01,2013-08-30 02:42:00,
2013-08-30 12:44:00,80.4,55.9,29.65,WSW,248,4.9,6.5,43,0.00,,---,0.00,VWS V14.01,2013-08-30 02:44:00,
2013-08-30 12:45:00,80.6,55.4,29.65,WNW,292,4.7,4.7,42,0.00,,---,0.00,VWS V14.01,2013-08-30 02:45:00,
2013-08-30 12:46:00,80.6,55.4,29.65,North,0,3.8,4.7,42,0.00,,---,0.00,VWS V14.01,2013-08-30 02:46:00,
2013-08-30 12:47:00,80.8,55.6,29.65,NW,315,10.3,10.3,42,0.00,,---,0.00,VWS V14.01,2013-08-30 02:47:00,
2013-08-30 12:48:00,81.0,55.7,29.65,NW,315,10.3,10.3,42,0.00,,---,0.00,VWS V14.01,2013-08-30 02:48:00,
2013-08-30 12:49:00,81.0,55.7,29.65,NW,315,10.3,10.3,42,0.00,,---,0.00,VWS V14.01,2013-08-30 02:49:00,
2013-08-30 12:50:00,81.0,55.7,29.65,NW,315,13.0,15.2,42,0.00,,---,0.00,VWS V14.01,2013-08-30 02:50:00,
2013-08-30 12:51:00,81.0,55.7,29.65,NW,315,13.0,15.2,42,0.00,,---,0.00,VWS V14.01,2013-08-30 02:51:00,
2013-08-30 12:52:00,80.8,55.6,29.65,West,270,5.8,13.0,42,0.00,,---,0.00,VWS V14.01,2013-08-30 02:52:00,
2013-08-30 12:53:00,80.8,55.6,29.65,WNW,292,8.7,8.7,42,0.00,,---,0.00,VWS V14.01,2013-08-30 02:53:00,
2013-08-30 12:54:00,80.8,54.9,29.65,NW,315,11.0,11.0,41,0.00,,---,0.00,VWS V14.01,2013-08-30 02:54:00,
2013-08-30 12:55:00,80.8,54.9,29.65,West,270,7.4,7.4,41,0.00,,---,0.00,VWS V14.01,2013-08-30 02:55:00,
2013-08-30 12:56:00,80.8,54.9,29.65,NW,315,12.8,12.8,41,0.00,,---,0.00,VWS V14.01,2013-08-30 02:56:00,
2013-08-30 12:57:00,81.0,55.1,29.65,NW,315,12.8,12.8,41,0.00,,---,0.00,VWS V14.01,2013-08-30 02:57:00,
2013-08-30 12:58:00,81.0,55.1,29.65,WNW,292,5.4,12.8,41,0.00,,---,0.00,VWS V14.01,2013-08-30 02:58:00,
2013-08-30 12:59:00,81.0,55.1,29.65,NW,315,12.5,12.5,41,0.00,,---,0.00,VWS V14.01,2013-08-30 02:59:00,
2013-08-30 13:00:00,81.0,55.1,29.65,NW,315,13.0,13.0,41,0.00,,---,0.00,VWS V14.01,2013-08-30 03:00:00,
2013-08-30 13:01:00,81.0,55.1,29.65,NW,315,7.8,13.0,41,0.00,,---,0.00,VWS V14.01,2013-08-30 03:01:00,
2013-08-30 13:02:00,81.1,55.2,29.65,West,270,6.5,7.8,41,0.00,,---,0.00,VWS V14.01,2013-08-30 03:02:00,
2013-08-30 13:03:00,81.1,55.2,29.65,NNW,338,10.3,10.3,41,0.00,,---,0.00,VWS V14.01,2013-08-30 03:03:00,
2013-08-30 13:04:00,81.1,55.2,29.65,NW,315,4.9,10.3,41,0.00,,---,0.00,VWS V14.01,2013-08-30 03:04:00,
2013-08-30 13:05:00,81.1,55.2,29.65,West,270,7.8,7.8,41,0.00,,---,0.00,VWS V14.01,2013-08-30 03:05:00,
2013-08-30 13:06:00,81.1,55.2,29.65,West,270,7.8,7.8,41,0.00,,---,0.00,VWS V14.01,2013-08-30 03:06:00,
2013-08-30 13:07:00,81.1,55.2,29.65,West,270,10.7,10.7,41,0.00,,---,0.00,VWS V14.01,2013-08-30 03:07:00,
2013-08-30 13:08:00,81.1,55.2,29.65,NW,315,12.8,17.5,41,0.00,,---,0.00,VWS V14.01,2013-08-30 03:08:00,
2013-08-30 13:09:00,81.1,54.5,29.65,North,0,8.5,12.8,40,0.00,,---,0.00,VWS V14.01,2013-08-30 03:09:00,
2013-08-30 13:10:00,81.0,55.1,29.65,WNW,292,15.2,15.2,41,0.00,,---,0.00,VWS V14.01,2013-08-30 03:10:00,
2013-08-30 13:11:00,81.0,55.1,29.65,WNW,292,15.2,15.2,41,0.00,,---,0.00,VWS V14.01,2013-08-30 03:11:00,
2013-08-30 13:12:00,81.0,55.1,29.65,NW,315,15.2,15.2,41,0.00,,---,0.00,VWS V14.01,2013-08-30 03:12:00,
2013-08-30 13:13:00,81.0,54.4,29.62,NNW,338,6.3,15.2,40,0.00,,---,0.00,VWS V14.01,2013-08-30 03:13:00,
2013-08-30 13:14:00,81.0,54.4,29.62,NNW,338,6.3,6.3,40,0.00,,---,0.00,VWS V14.01,2013-08-30 03:14:00,
2013-08-30 13:15:00,81.0,54.4,29.62,West,270,15.9,15.9,40,0.00,,---,0.00,VWS V14.01,2013-08-30 03:15:00,
2013-08-30 13:16:00,81.0,54.4,29.62,West,270,15.9,15.9,40,0.00,,---,0.00,VWS V14.01,2013-08-30 03:16:00,
2013-08-30 13:17:00,81.1,54.5,29.62,NW,315,2.9,15.9,40,0.00,,---,0.00,VWS V14.01,2013-08-30 03:17:00,
2013-08-30 13:18:00,81.1,54.5,29.62,WNW,292,8.1,8.1,40,0.00,,---,0.00,VWS V14.01,2013-08-30 03:18:00,
2013-08-30 13:19:00,81.1,54.5,29.62,NW,315,8.5,8.5,40,0.00,,---,0.00,VWS V14.01,2013-08-30 03:19:00,
2013-08-30 13:20:00,81.1,54.5,29.62,WNW,292,6.0,8.5,40,0.00,,---,0.00,VWS V14.01,2013-08-30 03:20:00,
2013-08-30 13:21:00,81.1,54.5,29.62,WNW,292,6.0,8.5,40,0.00,,---,0.00,VWS V14.01,2013-08-30 03:21:00,
2013-08-30 13:22:00,81.3,54.7,29.62,NW,315,5.6,6.0,40,0.00,,---,0.00,VWS V14.01,2013-08-30 03:22:00,
2013-08-30 13:23:00,81.3,54.7,29.62,NW,315,5.6,5.6,40,0.00,,---,0.00,VWS V14.01,2013-08-30 03:23:00,
2013-08-30 13:24:00,81.3,54.7,29.62,NW,315,8.1,8.1,40,0.00,,---,0.00,VWS V14.01,2013-08-30 03:24:00,
2013-08-30 13:25:00,81.3,54.7,29.62,WNW,292,8.5,8.5,40,0.00,,---,0.00,VWS V14.01,2013-08-30 03:25:00,
2013-08-30 13:26:00,81.3,54.7,29.62,NNW,338,8.7,8.7,40,0.00,,---,0.00,VWS V14.01,2013-08-30 03:26:00,
2013-08-30 13:27:00,81.3,54.7,29.62,WNW,292,6.9,8.7,40,0.00,,---,0.00,VWS V14.01,2013-08-30 03:27:00,
2013-08-30 13:28:00,81.3,54.7,29.62,NNW,338,8.5,8.5,40,0.00,,---,0.00,VWS V14.01,2013-08-30 03:28:00,
2013-08-30 13:29:00,81.3,54.7,29.62,North,0,6.3,8.5,40,0.00,,---,0.00,VWS V14.01,2013-08-30 03:29:00,
2013-08-30 13:30:00,81.3,54.7,29.62,North,0,6.3,6.3,40,0.00,,---,0.00,VWS V14.01,2013-08-30 03:30:00,
2013-08-30 13:31:00,81.3,54.7,29.62,West,270,8.5,8.5,40,0.00,,---,0.00,VWS V14.01,2013-08-30 03:31:00,
2013-08-30 13:32:00,81.3,54.7,29.62,West,270,4.0,8.5,40,0.00,,---,0.00,VWS V14.01,2013-08-30 03:32:00,
2013-08-30 13:33:00,81.3,54.7,29.62,West,270,4.0,4.0,40,0.00,,---,0.00,VWS V14.01,2013-08-30 03:33:00,
2013-08-30 13:34:00,81.3,54.7,29.62,West,270,4.0,4.0,40,0.00,,---,0.00,VWS V14.01,2013-08-30 03:34:00,
2013-08-30 13:35:00,81.5,54.9,29.62,NW,315,3.1,7.8,40,0.00,,---,0.00,VWS V14.01,2013-08-30 03:35:00,
2013-08-30 13:36:00,81.5,54.9,29.62,NW,315,3.1,7.8,40,0.00,,---,0.00,VWS V14.01,2013-08-30 03:36:00,
2013-08-30 13:37:00,81.5,54.9,29.62,NW,315,10.1,10.1,40,0.00,,---,0.00,VWS V14.01,2013-08-30 03:37:00,
2013-08-30 13:38:00,81.7,55.0,29.62,WNW,292,5.4,10.1,40,0.00,,---,0.00,VWS V14.01,2013-08-30 03:38:00,
2013-08-30 13:39:00,81.7,55.0,29.62,NW,315,8.1,8.1,40,0.00,,---,0.00,VWS V14.01,2013-08-30 03:39:00,
2013-08-30 13:40:00,81.7,55.0,29.62,West,270,6.0,6.0,40,0.00,,---,0.00,VWS V14.01,2013-08-30 03:40:00,
2013-08-30 13:41:00,81.9,55.2,29.62,West,270,8.7,8.7,40,0.00,,---,0.00,VWS V14.01,2013-08-30 03:41:00,
2013-08-30 13:42:00,81.9,55.2,29.62,NW,315,8.1,8.7,40,0.00,,---,0.00,VWS V14.01,2013-08-30 03:42:00,
2013-08-30 13:43:00,81.9,55.2,29.62,NW,315,10.3,10.3,40,0.00,,---,0.00,VWS V14.01,2013-08-30 03:43:00,
2013-08-30 13:44:00,81.9,55.2,29.62,NW,315,10.3,10.3,40,0.00,,---,0.00,VWS V14.01,2013-08-30 03:44:00,
2013-08-30 13:45:00,81.7,55.0,29.62,WNW,292,9.6,9.6,40,0.00,,---,0.00,VWS V14.01,2013-08-30 03:45:00,
2013-08-30 13:46:00,81.7,55.0,29.62,NW,315,8.7,9.6,40,0.00,,---,0.00,VWS V14.01,2013-08-30 03:46:00,
2013-08-30 13:47:00,81.9,55.2,29.62,NW,315,8.7,8.7,40,0.00,,---,0.00,VWS V14.01,2013-08-30 03:47:00,
2013-08-30 13:48:00,81.7,55.0,29.62,NW,315,3.4,8.7,40,0.00,,---,0.00,VWS V14.01,2013-08-30 03:48:00,
2013-08-30 13:49:00,81.7,55.0,29.62,NNW,338,6.7,6.7,40,0.00,,---,0.00,VWS V14.01,2013-08-30 03:49:00,
2013-08-30 13:50:00,81.7,54.3,29.62,ESE,112,9.0,9.0,39,0.00,,---,0.00,VWS V14.01,2013-08-30 03:50:00,
2013-08-30 13:51:00,81.7,54.3,29.62,ESE,112,9.0,9.0,39,0.00,,---,0.00,VWS V14.01,2013-08-30 03:51:00,
2013-08-30 13:52:00,81.7,54.3,29.62,NW,315,6.5,9.0,39,0.00,,---,0.00,VWS V14.01,2013-08-30 03:52:00,
2013-08-30 13:53:00,81.7,54.3,29.62,West,270,5.4,6.5,39,0.00,,---,0.00,VWS V14.01,2013-08-30 03:53:00,
2013-08-30 13:54:00,81.7,54.3,29.62,NW,315,9.8,9.8,39,0.00,,---,0.00,VWS V14.01,2013-08-30 03:54:00,
2013-08-30 13:55:00,81.9,54.5,29.62,West,270,8.1,9.8,39,0.00,,---,0.00,VWS V14.01,2013-08-30 03:55:00,
2013-08-30 13:56:00,81.9,54.5,29.62,West,270,10.5,10.5,39,0.00,,---,0.00,VWS V14.01,2013-08-30 03:56:00,
2013-08-30 13:57:00,81.7,55.0,29.62,North,0,8.1,10.5,40,0.00,,---,0.00,VWS V14.01,2013-08-30 03:57:00,
2013-08-30 13:59:00,81.7,55.0,29.62,NW,315,10.3,10.3,40,0.00,,---,0.00,VWS V14.01,2013-08-30 03:59:00,
2013-08-30 14:00:00,81.7,54.3,29.62,NW,315,10.1,10.1,39,0.00,,---,0.00,VWS V14.01,2013-08-30 04:00:00,
2013-08-30 14:01:00,81.7,54.3,29.62,NW,315,8.7,10.1,39,0.00,,---,0.00,VWS V14.01,2013-08-30 04:01:00,
2013-08-30 14:02:00,81.5,54.2,29.62,West,270,9.2,9.2,39,0.00,,---,0.00,VWS V14.01,2013-08-30 04:02:00,
2013-08-30 14:03:00,81.5,54.2,29.62,WNW,292,8.7,9.2,39,0.00,,---,0.00,VWS V14.01,2013-08-30 04:03:00,
2013-08-30 14:04:00,81.5,54.2,29.62,NW,315,4.3,8.7,39,0.00,,---,0.00,VWS V14.01,2013-08-30 04:04:00,
2013-08-30 14:05:00,81.5,54.2,29.62,North,0,4.9,4.9,39,0.00,,---,0.00,VWS V14.01,2013-08-30 04:05:00,
2013-08-30 14:06:00,81.7,54.3,29.62,NW,315,6.3,6.3,39,0.00,,---,0.00,VWS V14.01,2013-08-30 04:06:00,
2013-08-30 14:08:00,81.7,53.6,29.62,WNW,292,7.8,10.1,38,0.00,,---,0.00,VWS V14.01,2013-08-30 04:08:00,
2013-08-30 14:09:00,81.7,53.6,29.62,WNW,292,7.8,7.8,38,0.00,,---,0.00,VWS V14.01,2013-08-30 04:09:00,
2013-08-30 14:10:00,81.5,53.5,29.62,West,270,6.7,7.8,38,0.00,,---,0.00,VWS V14.01,2013-08-30 04:10:00,
2013-08-30 14:11:00,81.5,54.2,29.62,NW,315,7.4,7.4,39,0.00,,---,0.00,VWS V14.01,2013-08-30 04:11:00,
2013-08-30 14:12:00,81.5,54.2,29.62,WNW,292,7.8,7.8,39,0.00,,---,0.00,VWS V14.01,2013-08-30 04:12:00,
2013-08-30 14:14:00,81.5,54.2,29.62,West,270,7.4,7.4,39,0.00,,---,0.00,VWS V14.01,2013-08-30 04:14:00,
2013-08-30 14:15:00,81.5,54.2,29.62,West,270,7.4,7.4,39,0.00,,---,0.00,VWS V14.01,2013-08-30 04:15:00,
2013-08-30 14:16:00,81.5,54.2,29.62,NW,315,11.0,11.0,39,0.00,,---,0.00,VWS V14.01,2013-08-30 04:16:00,
2013-08-30 14:17:00,81.5,54.2,29.62,NW,315,9.6,11.0,39,0.00,,---,0.00,VWS V14.01,2013-08-30 04:17:00,
2013-08-30 14:18:00,81.5,54.2,29.62,NW,315,9.6,9.6,39,0.00,,---,0.00,VWS V14.01,2013-08-30 04:18:00,
2013-08-30 14:19:00,81.5,54.2,29.62,NW,315,10.1,10.1,39,0.00,,---,0.00,VWS V14.01,2013-08-30 04:19:00,
2013-08-30 14:20:00,81.5,54.2,29.62,NW,315,10.1,10.1,39,0.00,,---,0.00,VWS V14.01,2013-08-30 04:20:00,
2013-08-30 14:21:00,81.5,54.2,29.62,NW,315,11.0,11.0,39,0.00,,---,0.00,VWS V14.01,2013-08-30 04:21:00,
2013-08-30 14:22:00,81.5,54.2,29.62,NW,315,5.6,11.0,39,0.00,,---,0.00,VWS V14.01,2013-08-30 04:22:00,
2013-08-30 14:23:00,81.5,54.2,29.62,SW,225,6.5,6.5,39,0.00,,---,0.00,VWS V14.01,2013-08-30 04:23:00,
2013-08-30 14:24:00,81.7,54.3,29.62,West,270,12.5,12.5,39,0.00,,---,0.00,VWS V14.01,2013-08-30 04:24:00,
2013-08-30 14:25:00,81.5,54.2,29.62,West,270,12.5,12.5,39,0.00,,---,0.00,VWS V14.01,2013-08-30 04:25:00,
2013-08-30 14:26:00,81.5,54.2,29.62,NW,315,12.8,12.8,39,0.00,,---,0.00,VWS V14.01,2013-08-30 04:26:00,
2013-08-30 14:27:00,81.5,54.2,29.62,West,270,12.3,12.3,39,0.00,,---,0.00,VWS V14.01,2013-08-30 04:27:00,
2013-08-30 14:28:00,81.5,54.2,29.62,NW,315,10.3,12.3,39,0.00,,---,0.00,VWS V14.01,2013-08-30 04:28:00,
2013-08-30 14:29:00,81.5,54.2,29.62,NNW,338,10.3,10.3,39,0.00,,---,0.00,VWS V14.01,2013-08-30 04:29:00,
2013-08-30 14:30:00,81.5,54.2,29.62,NW,315,13.2,13.2,39,0.00,,---,0.00,VWS V14.01,2013-08-30 04:30:00,
2013-08-30 14:31:00,81.5,53.5,29.62,SW,225,11.0,11.0,38,0.00,,---,0.00,VWS V14.01,2013-08-30 04:31:00,
2013-08-30 14:32:00,81.5,53.5,29.62,WNW,292,10.7,11.0,38,0.00,,---,0.00,VWS V14.01,2013-08-30 04:32:00,
2013-08-30 14:33:00,81.3,53.3,29.62,NNW,338,10.5,10.7,38,0.00,,---,0.00,VWS V14.01,2013-08-30 04:33:00,
2013-08-30 14:34:00,81.3,53.3,29.62,NW,315,15.2,15.2,38,0.00,,---,0.00,VWS V14.01,2013-08-30 04:34:00,
2013-08-30 14:35:00,81.3,53.3,29.62,NW,315,9.0,15.2,38,0.00,,---,0.00,VWS V14.01,2013-08-30 04:35:00,
2013-08-30 14:36:00,81.3,53.3,29.62,NW,315,8.1,9.0,38,0.00,,---,0.00,VWS V14.01,2013-08-30 04:36:00,
2013-08-30 14:37:00,81.3,53.3,29.62,WNW,292,5.6,8.1,38,0.00,,---,0.00,VWS V14.01,2013-08-30 04:37:00,
2013-08-30 14:38:00,81.3,53.3,29.62,West,270,6.3,6.3,38,0.00,,---,0.00,VWS V14.01,2013-08-30 04:38:00,
2013-08-30 14:40:00,81.3,53.3,29.62,West,270,2.9,6.3,38,0.00,,---,0.00,VWS V14.01,2013-08-30 04:40:00,
2013-08-30 14:41:00,81.3,53.3,29.62,NW,315,5.4,5.4,38,0.00,,---,0.00,VWS V14.01,2013-08-30 04:41:00,
2013-08-30 14:42:00,81.3,53.3,29.62,NW,315,11.4,11.4,38,0.00,,---,0.00,VWS V14.01,2013-08-30 04:42:00,
2013-08-30 14:44:00,81.3,53.3,29.62,West,270,4.9,11.4,38,0.00,,---,0.00,VWS V14.01,2013-08-30 04:44:00,
2013-08-30 14:45:00,81.5,53.5,29.62,West,270,8.1,8.1,38,0.00,,---,0.00,VWS V14.01,2013-08-30 04:45:00,
2013-08-30 14:46:00,81.5,53.5,29.62,NNE,22,5.8,5.8,38,0.00,,---,0.00,VWS V14.01,2013-08-30 04:46:00,
2013-08-30 14:47:00,81.5,53.5,29.62,NE,45,7.6,7.6,38,0.00,,---,0.00,VWS V14.01,2013-08-30 04:47:00,
2013-08-30 14:48:00,81.5,53.5,29.62,WNW,292,8.7,8.7,38,0.00,,---,0.00,VWS V14.01,2013-08-30 04:48:00,
2013-08-30 14:49:00,81.5,53.5,29.62,NW,315,6.7,8.7,38,0.00,,---,0.00,VWS V14.01,2013-08-30 04:49:00,
2013-08-30 14:50:00,81.5,53.5,29.62,NW,315,6.7,6.7,38,0.00,,---,0.00,VWS V14.01,2013-08-30 04:50:00,
2013-08-30 14:51:00,81.5,53.5,29.62,West,270,3.4,6.7,38,0.00,,---,0.00,VWS V14.01,2013-08-30 04:51:00,
2013-08-30 14:52:00,81.5,53.5,29.62,West,270,3.4,6.7,38,0.00,,---,0.00,VWS V14.01,2013-08-30 04:52:00,
2013-08-30 14:53:00,81.5,53.5,29.62,West,270,11.0,11.0,38,0.00,,---,0.00,VWS V14.01,2013-08-30 04:53:00,
2013-08-30 14:54:00,81.5,53.5,29.62,North,0,7.8,11.0,38,0.00,,---,0.00,VWS V14.01,2013-08-30 04:54:00,
2013-08-30 14:55:00,81.5,53.5,29.62,NW,315,12.1,12.1,38,0.00,,---,0.00,VWS V14.01,2013-08-30 04:55:00,
2013-08-30 14:56:00,81.5,53.5,29.62,WNW,292,8.5,12.1,38,0.00,,---,0.00,VWS V14.01,2013-08-30 04:56:00,
2013-08-30 14:57:00,81.5,53.5,29.62,NW,315,3.8,12.1,38,0.00,,---,0.00,VWS V14.01,2013-08-30 04:57:00,
2013-08-30 14:58:00,81.5,53.5,29.62,West,270,5.6,5.6,38,0.00,,---,0.00,VWS V14.01,2013-08-30 04:58:00,
2013-08-30 14:59:00,81.5,53.5,29.62,West,270,11.0,11.0,38,0.00,,---,0.00,VWS V14.01,2013-08-30 04:59:00,
2013-08-30 15:00:00,81.5,53.5,29.62,West,270,7.8,11.0,38,0.00,,---,0.00,VWS V14.01,2013-08-30 05:00:00,
2013-08-30 15:01:00,81.5,52.7,29.62,NW,315,5.6,7.8,37,0.00,,---,0.00,VWS V14.01,2013-08-30 05:01:00,
2013-08-30 15:02:00,81.5,52.7,29.62,NW,315,5.6,5.6,37,0.00,,---,0.00,VWS V14.01,2013-08-30 05:02:00,
2013-08-30 15:03:00,81.5,52.7,29.62,NW,315,10.3,10.3,37,0.00,,---,0.00,VWS V14.01,2013-08-30 05:03:00,
2013-08-30 15:04:00,81.5,52.7,29.62,NW,315,10.3,10.3,37,0.00,,---,0.00,VWS V14.01,2013-08-30 05:04:00,
2013-08-30 15:05:00,81.5,52.7,29.62,NNW,338,4.9,10.3,37,0.00,,---,0.00,VWS V14.01,2013-08-30 05:05:00,
2013-08-30 15:06:00,81.5,53.5,29.62,NW,315,10.7,10.7,38,0.00,,---,0.00,VWS V14.01,2013-08-30 05:06:00,
2013-08-30 15:07:00,81.5,53.5,29.62,NW,315,10.1,10.7,38,0.00,,---,0.00,VWS V14.01,2013-08-30 05:07:00,
2013-08-30 15:08:00,81.5,53.5,29.62,North,0,9.8,10.1,38,0.00,,---,0.00,VWS V14.01,2013-08-30 05:08:00,
2013-08-30 15:09:00,81.5,53.5,29.62,North,0,9.8,9.8,38,0.00,,---,0.00,VWS V14.01,2013-08-30 05:09:00,
2013-08-30 15:10:00,81.5,53.5,29.62,West,270,10.3,14.3,38,0.00,,---,0.00,VWS V14.01,2013-08-30 05:10:00,
2013-08-30 15:11:00,81.3,52.6,29.62,West,270,10.3,10.3,37,0.00,,---,0.00,VWS V14.01,2013-08-30 05:11:00,
2013-08-30 15:13:00,81.3,52.6,29.62,West,270,10.3,10.3,37,0.00,,---,0.00,VWS V14.01,2013-08-30 05:13:00,
2013-08-30 15:14:00,81.3,52.6,29.62,West,270,6.9,10.3,37,0.00,,---,0.00,VWS V14.01,2013-08-30 05:14:00,
2013-08-30 15:15:00,81.1,52.4,29.62,NW,315,10.3,10.3,37,0.00,,---,0.00,VWS V14.01,2013-08-30 05:15:00,
2013-08-30 15:16:00,81.1,52.4,29.62,NW,315,11.0,11.0,37,0.00,,---,0.00,VWS V14.01,2013-08-30 05:16:00,
2013-08-30 15:17:00,81.1,52.4,29.62,WNW,292,8.1,11.0,37,0.00,,---,0.00,VWS V14.01,2013-08-30 05:17:00,
2013-08-30 15:18:00,81.1,52.4,29.62,WNW,292,8.1,8.1,37,0.00,,---,0.00,VWS V14.01,2013-08-30 05:18:00,
2013-08-30 15:19:00,81.1,52.4,29.62,NW,315,11.0,11.0,37,0.00,,---,0.00,VWS V14.01,2013-08-30 05:19:00,
2013-08-30 15:20:00,81.0,52.3,29.62,NW,315,4.0,11.0,37,0.00,,---,0.00,VWS V14.01,2013-08-30 05:20:00,
2013-08-30 15:21:00,81.0,52.3,29.62,NW,315,7.8,7.8,37,0.00,,---,0.00,VWS V14.01,2013-08-30 05:21:00,
2013-08-30 15:22:00,81.1,53.2,29.62,NW,315,6.5,7.8,38,0.00,,---,0.00,VWS V14.01,2013-08-30 05:22:00,
2013-08-30 15:23:00,81.1,53.2,29.62,WNW,292,6.3,6.5,38,0.00,,---,0.00,VWS V14.01,2013-08-30 05:23:00,
2013-08-30 15:24:00,81.0,52.3,29.62,NW,315,7.4,7.4,37,0.00,,---,0.00,VWS V14.01,2013-08-30 05:24:00,
2013-08-30 15:25:00,81.0,52.3,29.62,NW,315,5.4,7.4,37,0.00,,---,0.00,VWS V14.01,2013-08-30 05:25:00,
2013-08-30 15:26:00,80.8,52.1,29.62,NW,315,5.4,5.4,37,0.00,,---,0.00,VWS V14.01,2013-08-30 05:26:00,
2013-08-30 15:27:00,80.8,51.4,29.62,NW,315,5.4,5.4,36,0.00,,---,0.00,VWS V14.01,2013-08-30 05:27:00,
2013-08-30 15:28:00,80.8,51.4,29.62,NW,315,10.1,10.1,36,0.00,,---,0.00,VWS V14.01,2013-08-30 05:28:00,
2013-08-30 15:29:00,80.8,51.4,29.62,NW,315,10.1,10.1,36,0.00,,---,0.00,VWS V14.01,2013-08-30 05:29:00,
2013-08-30 15:30:00,80.8,51.4,29.62,West,270,6.5,10.1,36,0.00,,---,0.00,VWS V14.01,2013-08-30 05:30:00,
2013-08-30 15:31:00,80.8,52.1,29.62,West,270,6.5,6.5,37,0.00,,---,0.00,VWS V14.01,2013-08-30 05:31:00,
2013-08-30 15:32:00,80.8,52.1,29.62,West,270,5.6,6.5,37,0.00,,---,0.00,VWS V14.01,2013-08-30 05:32:00,
2013-08-30 15:33:00,80.8,52.1,29.62,NW,315,12.8,12.8,37,0.00,,---,0.00,VWS V14.01,2013-08-30 05:33:00,
2013-08-30 15:34:00,80.8,52.1,29.62,North,0,7.6,12.8,37,0.00,,---,0.00,VWS V14.01,2013-08-30 05:34:00,
2013-08-30 15:35:00,80.8,52.1,29.62,WNW,292,9.0,9.0,37,0.00,,---,0.00,VWS V14.01,2013-08-30 05:35:00,
2013-08-30 15:36:00,80.8,52.1,29.62,WNW,292,9.0,9.0,37,0.00,,---,0.00,VWS V14.01,2013-08-30 05:36:00,
2013-08-30 15:37:00,80.8,52.1,29.62,West,270,10.3,10.3,37,0.00,,---,0.00,VWS V14.01,2013-08-30 05:37:00,
2013-08-30 15:38:00,80.8,52.1,29.62,North,0,10.1,10.3,37,0.00,,---,0.00,VWS V14.01,2013-08-30 05:38:00,
2013-08-30 15:39:00,80.8,52.1,29.62,SW,225,4.9,10.1,37,0.00,,---,0.00,VWS V14.01,2013-08-30 05:39:00,
2013-08-30 15:40:00,80.8,52.1,29.62,SW,225,4.9,4.9,37,0.00,,---,0.00,VWS V14.01,2013-08-30 05:40:00,
2013-08-30 15:41:00,80.8,52.1,29.62,West,270,5.8,5.8,37,0.00,,---,0.00,VWS V14.01,2013-08-30 05:41:00,
2013-08-30 15:42:00,80.8,52.1,29.62,NW,315,10.7,10.7,37,0.00,,---,0.00,VWS V14.01,2013-08-30 05:42:00,
2013-08-30 15:43:00,80.8,52.1,29.62,NW,315,10.7,10.7,37,0.00,,---,0.00,VWS V14.01,2013-08-30 05:43:00,
2013-08-30 15:44:00,80.8,52.1,29.62,WNW,292,7.6,10.7,37,0.00,,---,0.00,VWS V14.01,2013-08-30 05:44:00,
2013-08-30 15:45:00,80.8,52.1,29.62,WSW,248,7.6,7.6,37,0.00,,---,0.00,VWS V14.01,2013-08-30 05:45:00,
2013-08-30 15:46:00,80.8,52.1,29.62,West,270,7.8,7.8,37,0.00,,---,0.00,VWS V14.01,2013-08-30 05:46:00,
2013-08-30 15:47:00,80.8,52.1,29.62,West,270,7.8,7.8,37,0.00,,---,0.00,VWS V14.01,2013-08-30 05:47:00,
2013-08-30 15:48:00,80.8,52.1,29.62,NW,315,7.6,7.8,37,0.00,,---,0.00,VWS V14.01,2013-08-30 05:48:00,
2013-08-30 15:49:00,80.8,52.1,29.62,NW,315,7.6,7.6,37,0.00,,---,0.00,VWS V14.01,2013-08-30 05:49:00,
2013-08-30 15:50:00,80.8,51.4,29.62,NW,315,5.8,7.6,36,0.00,,---,0.00,VWS V14.01,2013-08-30 05:50:00,
2013-08-30 15:51:00,80.8,51.4,29.62,North,0,6.9,6.9,36,0.00,,---,0.00,VWS V14.01,2013-08-30 05:51:00,
2013-08-30 15:52:00,80.8,51.4,29.62,West,270,9.8,9.8,36,0.00,,---,0.00,VWS V14.01,2013-08-30 05:52:00,
2013-08-30 15:53:00,80.8,51.4,29.62,NW,315,7.6,9.8,36,0.00,,---,0.00,VWS V14.01,2013-08-30 05:53:00,
2013-08-30 15:54:00,80.6,51.2,29.62,NW,315,5.6,7.6,36,0.00,,---,0.00,VWS V14.01,2013-08-30 05:54:00,
2013-08-30 15:55:00,80.6,51.2,29.62,NW,315,6.3,6.3,36,0.00,,---,0.00,VWS V14.01,2013-08-30 05:55:00,
2013-08-30 15:56:00,80.6,52.0,29.62,NW,315,6.3,6.3,37,0.00,,---,0.00,VWS V14.01,2013-08-30 05:56:00,
2013-08-30 15:57:00,80.6,51.2,29.62,NW,315,9.8,12.8,36,0.00,,---,0.00,VWS V14.01,2013-08-30 05:57:00,
2013-08-30 15:58:00,80.6,51.2,29.62,NW,315,7.6,9.8,36,0.00,,---,0.00,VWS V14.01,2013-08-30 05:58:00,
2013-08-30 15:59:00,80.4,51.0,29.62,WSW,248,6.0,7.6,36,0.00,,---,0.00,VWS V14.01,2013-08-30 05:59:00,
2013-08-30 16:00:00,80.4,51.0,29.62,NW,315,10.3,10.3,36,0.00,,---,0.00,VWS V14.01,2013-08-30 06:00:00,
2013-08-30 16:01:00,80.4,51.0,29.62,NW,315,10.3,10.3,36,0.00,,---,0.00,VWS V14.01,2013-08-30 06:01:00,
2013-08-30 16:02:00,80.4,51.0,29.62,West,270,12.5,12.5,36,0.00,,---,0.00,VWS V14.01,2013-08-30 06:02:00,
2013-08-30 16:03:00,80.4,51.0,29.62,NW,315,10.3,12.5,36,0.00,,---,0.00,VWS V14.01,2013-08-30 06:03:00,
2013-08-30 16:04:00,80.4,51.0,29.62,NW,315,10.3,10.3,36,0.00,,---,0.00,VWS V14.01,2013-08-30 06:04:00,
2013-08-30 16:05:00,80.4,51.0,29.62,West,270,5.8,10.3,36,0.00,,---,0.00,VWS V14.01,2013-08-30 06:05:00,
2013-08-30 16:06:00,80.4,51.0,29.62,West,270,9.0,9.0,36,0.00,,---,0.00,VWS V14.01,2013-08-30 06:06:00,
2013-08-30 16:07:00,80.4,51.0,29.62,West,270,5.4,9.0,36,0.00,,---,0.00,VWS V14.01,2013-08-30 06:07:00,
2013-08-30 16:08:00,80.4,51.0,29.62,West,270,5.4,5.4,36,0.00,,---,0.00,VWS V14.01,2013-08-30 06:08:00,
2013-08-30 16:09:00,80.4,51.0,29.62,WSW,248,9.8,9.8,36,0.00,,---,0.00,VWS V14.01,2013-08-30 06:09:00,
2013-08-30 16:10:00,80.2,50.9,29.62,West,270,4.9,9.8,36,0.00,,---,0.00,VWS V14.01,2013-08-30 06:10:00,
2013-08-30 16:11:00,80.2,50.9,29.62,West,270,5.6,5.6,36,0.00,,---,0.00,VWS V14.01,2013-08-30 06:11:00,
2013-08-30 16:12:00,80.2,50.9,29.62,West,270,5.6,5.6,36,0.00,,---,0.00,VWS V14.01,2013-08-30 06:12:00,
2013-08-30 16:13:00,80.2,50.9,29.62,NW,315,6.0,6.0,36,0.00,,---,0.00,VWS V14.01,2013-08-30 06:13:00,
2013-08-30 16:14:00,80.2,50.9,29.62,WNW,292,9.2,9.2,36,0.00,,---,0.00,VWS V14.01,2013-08-30 06:14:00,
2013-08-30 16:15:00,80.2,50.9,29.62,NW,315,12.8,12.8,36,0.00,,---,0.00,VWS V14.01,2013-08-30 06:15:00,
2013-08-30 16:16:00,80.2,50.9,29.62,NW,315,8.1,8.1,36,0.00,,---,0.00,VWS V14.01,2013-08-30 06:16:00,
2013-08-30 16:17:00,80.2,50.9,29.62,NW,315,8.5,8.5,36,0.00,,---,0.00,VWS V14.01,2013-08-30 06:17:00,
2013-08-30 16:18:00,80.2,50.9,29.62,NW,315,8.5,8.5,36,0.00,,---,0.00,VWS V14.01,2013-08-30 06:18:00,
2013-08-30 16:19:00,80.1,50.7,29.62,NW,315,9.2,9.2,36,0.00,,---,0.00,VWS V14.01,2013-08-30 06:19:00,
2013-08-30 16:20:00,80.1,50.7,29.62,NW,315,7.4,9.2,36,0.00,,---,0.00,VWS V14.01,2013-08-30 06:20:00,
2013-08-30 16:21:00,80.1,50.7,29.62,WNW,292,4.3,7.4,36,0.00,,---,0.00,VWS V14.01,2013-08-30 06:21:00,
2013-08-30 16:22:00,80.1,50.0,29.62,NW,315,5.6,5.6,35,0.00,,---,0.00,VWS V14.01,2013-08-30 06:22:00,
2013-08-30 16:23:00,80.1,50.0,29.62,NW,315,7.6,7.6,35,0.00,,---,0.00,VWS V14.01,2013-08-30 06:23:00,
2013-08-30 16:24:00,80.1,50.0,29.62,West,270,5.6,7.6,35,0.00,,---,0.00,VWS V14.01,2013-08-30 06:24:00,
2013-08-30 16:25:00,80.1,50.0,29.62,WNW,292,6.3,6.3,35,0.00,,---,0.00,VWS V14.01,2013-08-30 06:25:00,
2013-08-30 16:26:00,79.9,49.8,29.62,NNW,338,8.5,8.5,35,0.00,,---,0.00,VWS V14.01,2013-08-30 06:26:00,
2013-08-30 16:27:00,79.9,49.8,29.62,West,270,10.5,10.5,35,0.00,,---,0.00,VWS V14.01,2013-08-30 06:27:00,
2013-08-30 16:28:00,79.9,49.8,29.62,NW,315,2.9,10.5,35,0.00,,---,0.00,VWS V14.01,2013-08-30 06:28:00,
2013-08-30 16:29:00,79.9,49.8,29.62,WNW,292,3.1,3.1,35,0.00,,---,0.00,VWS V14.01,2013-08-30 06:29:00,
2013-08-30 16:30:00,79.9,49.8,29.62,WNW,292,3.1,3.1,35,0.00,,---,0.00,VWS V14.01,2013-08-30 06:30:00,
2013-08-30 16:31:00,79.9,49.8,29.62,NNW,338,4.3,4.3,35,0.00,,---,0.00,VWS V14.01,2013-08-30 06:31:00,
2013-08-30 16:32:00,79.9,49.8,29.62,West,270,4.9,4.9,35,0.00,,---,0.00,VWS V14.01,2013-08-30 06:32:00,
2013-08-30 16:33:00,79.9,49.8,29.62,West,270,4.0,4.9,35,0.00,,---,0.00,VWS V14.01,2013-08-30 06:33:00,
2013-08-30 16:34:00,79.9,49.8,29.62,NW,315,8.7,8.7,35,0.00,,---,0.00,VWS V14.01,2013-08-30 06:34:00,
2013-08-30 16:35:00,79.9,49.8,29.62,NW,315,9.4,9.4,35,0.00,,---,0.00,VWS V14.01,2013-08-30 06:35:00,
2013-08-30 16:36:00,79.7,49.7,29.62,NW,315,6.5,9.4,35,0.00,,---,0.00,VWS V14.01,2013-08-30 06:36:00,
2013-08-30 16:37:00,79.7,49.7,29.62,NNW,338,4.0,6.5,35,0.00,,---,0.00,VWS V14.01,2013-08-30 06:37:00,
2013-08-30 16:38:00,79.7,49.7,29.62,NW,315,2.7,4.0,35,0.00,,---,0.00,VWS V14.01,2013-08-30 06:38:00,
2013-08-30 16:39:00,79.7,49.7,29.62,West,270,4.0,4.0,35,0.00,,---,0.00,VWS V14.01,2013-08-30 06:39:00,
2013-08-30 16:40:00,79.7,49.7,29.62,NW,315,6.5,6.5,35,0.00,,---,0.00,VWS V14.01,2013-08-30 06:40:00,
2013-08-30 16:41:00,79.5,49.5,29.62,WNW,292,10.1,10.1,35,0.00,,---,0.00,VWS V14.01,2013-08-30 06:41:00,
2013-08-30 16:42:00,79.5,49.5,29.62,WNW,292,5.8,10.1,35,0.00,,---,0.00,VWS V14.01,2013-08-30 06:42:00,
2013-08-30 16:43:00,79.5,49.5,29.62,NW,315,8.5,8.5,35,0.00,,---,0.00,VWS V14.01,2013-08-30 06:43:00,
2013-08-30 16:44:00,79.5,49.5,29.62,NNW,338,5.8,8.5,35,0.00,,---,0.00,VWS V14.01,2013-08-30 06:44:00,
2013-08-30 16:45:00,79.3,49.3,29.62,WSW,248,3.1,5.8,35,0.00,,---,0.00,VWS V14.01,2013-08-30 06:45:00,
2013-08-30 16:46:00,79.3,49.3,29.62,WNW,292,4.9,4.9,35,0.00,,---,0.00,VWS V14.01,2013-08-30 06:46:00,
2013-08-30 16:47:00,79.3,49.3,29.62,NNW,338,4.9,4.9,35,0.00,,---,0.00,VWS V14.01,2013-08-30 06:47:00,
2013-08-30 16:48:00,79.3,49.3,29.62,NNW,338,5.6,5.6,35,0.00,,---,0.00,VWS V14.01,2013-08-30 06:48:00,
2013-08-30 16:49:00,79.2,49.2,29.62,NNW,338,4.7,5.6,35,0.00,,---,0.00,VWS V14.01,2013-08-30 06:49:00,
2013-08-30 16:50:00,79.2,49.2,29.62,West,270,4.0,4.7,35,0.00,,---,0.00,VWS V14.01,2013-08-30 06:50:00,
2013-08-30 16:51:00,79.2,49.2,29.62,NW,315,5.4,5.4,35,0.00,,---,0.00,VWS V14.01,2013-08-30 06:51:00,
2013-08-30 16:52:00,79.2,49.2,29.62,WNW,292,4.3,5.4,35,0.00,,---,0.00,VWS V14.01,2013-08-30 06:52:00,